createdAt,value
2022-07-29T00:02:47.321Z,45.99
2022-07-29T00:05:49.854Z,45.56
2022-07-29T00:08:52.073Z,45.57
2022-07-29T00:11:57.791Z,45.41
2022-07-29T00:14:59.958Z,45.26
2022-07-29T00:18:02.388Z,45.44
2022-07-29T00:21:04.507Z,45.32
2022-07-29T00:24:07.070Z,45.43
2022-07-29T00:27:09.230Z,45.76
2022-07-29T00:30:12.025Z,45.68
2022-07-29T00:33:14.195Z,45.92
2022-07-29T00:36:16.652Z,45.87
2022-07-29T00:39:18.772Z,45.82
2022-07-29T00:42:21.175Z,45.75
2022-07-29T00:45:23.454Z,46.04
2022-07-29T00:48:25.882Z,46.92
2022-07-29T00:51:28.390Z,46.05
2022-07-29T00:54:31.252Z,45.94
2022-07-29T00:57:34.330Z,45.86
2022-07-29T01:00:37.763Z,46.22
2022-07-29T01:03:39.941Z,46.72
2022-07-29T01:06:43.566Z,46.48
2022-07-29T01:09:47.323Z,46.26
2022-07-29T01:12:52.243Z,46.13
2022-07-29T01:16:00.282Z,46.55
2022-07-29T01:19:26.763Z,46.48
2022-07-29T01:22:35.282Z,46.33
2022-07-29T01:25:59.052Z,46.23
2022-07-29T01:29:19.931Z,46.27
2022-07-29T01:32:29.589Z,46.85
2022-07-29T01:35:41.947Z,47.29
2022-07-29T01:38:51.396Z,47.44
2022-07-29T01:42:13.941Z,47.67
2022-07-29T01:45:20.851Z,46.96
2022-07-29T01:48:28.520Z,46.55
2022-07-29T01:51:43.800Z,46.73
2022-07-29T01:54:58.221Z,47.21
2022-07-29T01:58:04.079Z,47.52
2022-07-29T02:01:07.754Z,48.40
2022-07-29T02:04:26.636Z,48.66
2022-07-29T02:07:33.844Z,49.00
2022-07-29T02:10:38.130Z,48.63
2022-07-29T02:13:41.983Z,48.34
2022-07-29T02:16:46.299Z,48.34
2022-07-29T02:19:49.907Z,48.89
2022-07-29T02:22:55.636Z,49.43
2022-07-29T02:26:00.109Z,50.02
2022-07-29T02:29:03.442Z,50.55
2022-07-29T02:32:08.287Z,50.49
2022-07-29T02:35:13.618Z,50.40
2022-07-29T02:38:36.532Z,50.74
2022-07-29T02:41:51.055Z,51.13
2022-07-29T02:44:53.377Z,51.04
2022-07-29T02:47:58.932Z,50.84
2022-07-29T02:51:43.468Z,51.36
2022-07-29T02:55:10.872Z,51.71
2022-07-29T02:58:30.005Z,51.76
2022-07-29T03:01:33.992Z,51.90
2022-07-29T03:04:38.654Z,51.86
2022-07-29T03:07:43.002Z,52.21
2022-07-29T03:10:46.673Z,52.41
2022-07-29T03:13:49.591Z,52.75
2022-07-29T03:16:52.667Z,52.53
2022-07-29T03:19:55.599Z,52.73
2022-07-29T03:22:57.651Z,52.91
2022-07-29T03:26:00.137Z,53.26
2022-07-29T03:29:02.256Z,53.40
2022-07-29T03:32:07.959Z,53.40
2022-07-29T03:35:10.711Z,53.37
2022-07-29T03:38:13.144Z,53.26
2022-07-29T03:41:17.354Z,53.49
2022-07-29T03:44:27.070Z,53.00
2022-07-29T03:47:50.055Z,53.33
2022-07-29T03:50:53.720Z,53.11
2022-07-29T03:53:55.956Z,53.38
2022-07-29T03:57:01.909Z,53.19
2022-07-29T04:00:06.293Z,53.02
2022-07-29T04:03:10.817Z,53.50
2022-07-29T04:06:14.001Z,50.34
2022-07-29T04:09:16.466Z,49.01
2022-07-29T04:12:18.618Z,48.50
2022-07-29T04:15:21.195Z,51.37
2022-07-29T04:18:23.574Z,49.48
2022-07-29T04:21:26.012Z,50.61
2022-07-29T04:24:28.617Z,53.84
2022-07-29T04:27:31.001Z,51.72
2022-07-29T04:30:34.493Z,52.84
2022-07-29T04:33:37.115Z,53.01
2022-07-29T04:36:39.282Z,52.31
2022-07-29T04:39:41.708Z,53.88
2022-07-29T04:42:46.380Z,52.45
2022-07-29T04:45:49.697Z,53.90
2022-07-29T04:48:51.949Z,54.56
2022-07-29T04:51:54.392Z,52.99
2022-07-29T04:54:56.514Z,53.42
2022-07-29T04:57:58.898Z,54.12
2022-07-29T05:01:01.141Z,52.38
2022-07-29T05:04:03.700Z,52.06
2022-07-29T05:07:05.822Z,51.97
2022-07-29T05:10:08.965Z,51.28
2022-07-29T05:13:11.095Z,50.17
2022-07-29T05:16:14.127Z,50.46
2022-07-29T05:19:16.441Z,49.93
2022-07-29T05:22:20.282Z,49.08
2022-07-29T05:25:22.891Z,48.77
2022-07-29T05:28:25.277Z,47.73
2022-07-29T05:31:27.433Z,47.41
2022-07-29T05:34:29.942Z,46.97
2022-07-29T05:37:32.155Z,45.86
2022-07-29T05:40:35.128Z,45.41
2022-07-29T05:43:37.389Z,43.62
2022-07-29T05:46:39.835Z,41.79
2022-07-29T05:49:41.959Z,35.73
2022-07-29T05:52:44.664Z,30.47
2022-07-29T05:55:46.950Z,25.28
2022-07-29T05:58:49.426Z,23.89
2022-07-29T06:01:51.620Z,23.76
2022-07-29T06:04:54.685Z,25.59
2022-07-29T06:07:56.757Z,23.81
2022-07-29T06:10:59.077Z,24.60
2022-07-29T06:14:01.251Z,23.23
2022-07-29T06:17:03.623Z,21.52
2022-07-29T06:20:07.561Z,20.10
2022-07-29T06:23:10.946Z,21.55
2022-07-29T06:26:13.059Z,22.18
2022-07-29T06:29:15.495Z,20.51
2022-07-29T06:32:17.846Z,22.48
2022-07-29T06:35:38.765Z,21.48
2022-07-29T06:38:49.187Z,23.40
2022-07-29T06:41:54.964Z,23.64
2022-07-29T06:45:00.764Z,22.67
2022-07-29T06:48:03.318Z,23.45
2022-07-29T06:51:06.626Z,22.74
2022-07-29T06:54:09.091Z,20.70
2022-07-29T06:57:11.207Z,19.64
2022-07-29T07:00:14.545Z,17.92
2022-07-29T07:03:18.127Z,16.01
2022-07-29T07:06:20.577Z,16.58
2022-07-29T07:09:23.382Z,17.78
2022-07-29T07:12:26.156Z,19.04
2022-07-29T07:15:39.200Z,16.86
2022-07-29T07:18:44.143Z,17.99
2022-07-29T07:21:46.692Z,17.53
2022-07-29T07:24:49.104Z,17.06
2022-07-29T07:27:51.257Z,18.63
2022-07-29T07:30:53.655Z,20.56
2022-07-29T07:33:55.906Z,19.73
2022-07-29T07:36:58.317Z,21.40
2022-07-29T07:40:00.628Z,24.77
2022-07-29T07:43:03.066Z,30.14
2022-07-29T07:46:05.400Z,32.32
2022-07-29T07:49:07.777Z,32.12
2022-07-29T07:52:10.628Z,31.59
2022-07-29T07:55:13.724Z,32.15
2022-07-29T07:58:15.862Z,32.59
2022-07-29T08:01:19.997Z,31.54
2022-07-29T08:04:27.277Z,31.79
2022-07-29T08:07:30.547Z,33.49
2022-07-29T08:10:51.585Z,34.16
2022-07-29T08:13:53.743Z,33.25
2022-07-29T08:16:56.231Z,32.50
2022-07-29T08:19:58.392Z,32.87
2022-07-29T08:23:00.841Z,32.59
2022-07-29T08:26:02.970Z,33.04
2022-07-29T08:29:05.377Z,32.38
2022-07-29T08:32:07.641Z,32.44
2022-07-29T08:35:10.107Z,32.67
2022-07-29T08:38:12.268Z,32.97
2022-07-29T08:41:14.734Z,34.07
2022-07-29T08:44:18.185Z,34.49
2022-07-29T08:47:33.969Z,34.14
2022-07-29T08:50:38.903Z,34.57
2022-07-29T08:53:44.054Z,34.68
2022-07-29T08:56:50.301Z,34.05
2022-07-29T08:59:55.148Z,33.55
2022-07-29T09:03:00.108Z,33.73
2022-07-29T09:06:04.654Z,33.48
2022-07-29T09:09:08.506Z,33.29
2022-07-29T09:12:12.441Z,33.20
2022-07-29T09:15:14.625Z,33.06
2022-07-29T09:18:41.289Z,31.08
2022-07-29T09:21:58.733Z,29.20
2022-07-29T09:25:01.122Z,27.40
2022-07-29T09:28:15.559Z,22.85
2022-07-29T09:31:18.011Z,21.29
2022-07-29T09:34:38.501Z,20.00
2022-07-29T09:37:41.094Z,18.52
2022-07-29T09:40:56.566Z,19.12
2022-07-29T09:44:02.961Z,19.41
2022-07-29T09:47:09.276Z,18.10
2022-07-29T09:50:12.501Z,16.26
2022-07-29T09:53:35.053Z,18.77
2022-07-29T09:56:42.146Z,16.09
2022-07-29T09:59:57.278Z,16.58
2022-07-29T10:03:02.045Z,15.55
2022-07-29T10:06:09.899Z,16.93
2022-07-29T10:09:12.286Z,17.29
2022-07-29T10:12:15.445Z,16.47
2022-07-29T10:15:21.826Z,16.72
2022-07-29T10:18:24.289Z,16.85
2022-07-29T10:21:35.825Z,15.97
2022-07-29T10:24:39.710Z,15.51
2022-07-29T10:27:44.182Z,16.53
2022-07-29T10:30:47.822Z,16.79
2022-07-29T10:34:17.909Z,16.71
2022-07-29T10:37:46.066Z,16.88
2022-07-29T10:41:22.378Z,17.21
2022-07-29T10:44:28.333Z,17.61
2022-07-29T10:47:31.586Z,19.89
2022-07-29T10:50:54.182Z,20.08
2022-07-29T10:54:00.730Z,17.90
2022-07-29T10:57:17.107Z,18.11
2022-07-29T11:00:19.599Z,16.48
2022-07-29T11:03:41.526Z,17.38
2022-07-29T11:07:10.744Z,21.08
2022-07-29T11:10:16.434Z,21.01
2022-07-29T11:13:55.789Z,22.77
2022-07-29T11:17:03.381Z,22.55
2022-07-29T11:20:44.182Z,21.79
2022-07-29T11:23:47.138Z,19.92
2022-07-29T11:27:18.228Z,18.80
2022-07-29T11:30:42.591Z,17.48
2022-07-29T11:33:56.362Z,18.26
2022-07-29T11:37:17.772Z,15.80
2022-07-29T11:40:21.444Z,16.03
2022-07-29T11:43:52.107Z,16.65
2022-07-29T11:46:55.371Z,17.03
2022-07-29T11:49:59.912Z,16.69
2022-07-29T11:53:08.804Z,17.49
2022-07-29T11:56:17.190Z,17.38
2022-07-29T11:59:21.075Z,17.32
2022-07-29T12:02:37.865Z,17.20
2022-07-29T12:05:48.456Z,16.19
2022-07-29T12:08:54.302Z,16.57
2022-07-29T12:12:04.655Z,17.71
2022-07-29T12:15:20.905Z,15.55
2022-07-29T12:18:25.565Z,15.52
2022-07-29T12:21:28.932Z,15.91
2022-07-29T12:24:45.131Z,15.22
2022-07-29T12:27:48.685Z,14.57
2022-07-29T12:30:52.414Z,16.01
2022-07-29T12:33:54.983Z,16.76
2022-07-29T12:36:59.470Z,16.91
2022-07-29T12:40:02.750Z,15.67
2022-07-29T12:43:08.711Z,15.34
2022-07-29T12:46:15.934Z,17.37
2022-07-29T12:49:24.793Z,18.38
2022-07-29T12:52:27.841Z,19.13
2022-07-29T12:55:41.432Z,17.01
2022-07-29T12:58:44.529Z,17.86
2022-07-29T13:01:50.404Z,16.60
2022-07-29T13:05:02.831Z,15.85
2022-07-29T13:08:20.351Z,17.54
2022-07-29T13:11:37.156Z,17.87
2022-07-29T13:14:41.813Z,17.75
2022-07-29T13:17:44.530Z,18.13
2022-07-29T13:20:50.523Z,19.06
2022-07-29T13:23:52.500Z,19.09
2022-07-29T13:26:54.790Z,19.33
2022-07-29T13:29:58.922Z,18.84
2022-07-29T13:33:01.320Z,19.37
2022-07-29T13:36:03.527Z,20.07
2022-07-29T13:39:05.943Z,20.17
2022-07-29T13:42:10.890Z,20.15
2022-07-29T13:45:13.833Z,20.66
2022-07-29T13:48:15.814Z,21.10
2022-07-29T13:51:18.271Z,21.74
2022-07-29T13:54:20.895Z,21.73
2022-07-29T13:57:23.353Z,21.48
2022-07-29T14:00:25.541Z,20.93
2022-07-29T14:03:27.869Z,22.05
2022-07-29T14:06:30.232Z,20.61
2022-07-29T14:09:41.089Z,21.34
2022-07-29T14:12:43.985Z,20.90
2022-07-29T14:15:46.389Z,21.14
2022-07-29T14:18:48.539Z,21.23
2022-07-29T14:21:51.154Z,21.88
2022-07-29T14:24:53.572Z,21.49
2022-07-29T14:27:56.001Z,21.57
2022-07-29T14:31:00.788Z,21.63
2022-07-29T14:34:03.587Z,21.54
2022-07-29T14:37:07.028Z,21.78
2022-07-29T14:40:11.255Z,21.98
2022-07-29T14:43:14.566Z,22.72
2022-07-29T14:46:16.999Z,22.18
2022-07-29T14:49:19.191Z,22.74
2022-07-29T14:52:21.734Z,22.14
2022-07-29T14:55:24.090Z,21.97
2022-07-29T14:58:26.494Z,22.35
2022-07-29T15:01:28.759Z,22.68
2022-07-29T15:04:31.283Z,23.19
2022-07-29T15:07:33.368Z,23.11
2022-07-29T15:10:35.950Z,23.13
2022-07-29T15:13:38.077Z,23.04
2022-07-29T15:16:43.660Z,23.07
2022-07-29T15:19:48.890Z,22.68
2022-07-29T15:22:51.333Z,22.95
2022-07-29T15:25:53.443Z,22.93
2022-07-29T15:28:56.980Z,22.89
2022-07-29T15:31:59.467Z,22.96
2022-07-29T15:35:02.241Z,23.59
2022-07-29T15:38:04.425Z,23.08
2022-07-29T15:41:09.936Z,23.24
2022-07-29T15:44:12.136Z,23.89
2022-07-29T15:47:14.538Z,23.44
2022-07-29T15:50:20.027Z,23.38
2022-07-29T15:53:22.421Z,23.25
2022-07-29T15:56:25.009Z,23.85
2022-07-29T15:59:27.570Z,23.35
2022-07-29T16:02:29.703Z,23.56
2022-07-29T16:05:32.093Z,23.73
2022-07-29T16:08:34.262Z,24.27
2022-07-29T16:11:36.811Z,24.06
2022-07-29T16:14:38.894Z,24.42
2022-07-29T16:17:41.345Z,23.71
2022-07-29T16:20:43.452Z,24.13
2022-07-29T16:23:45.856Z,23.90
2022-07-29T16:26:47.947Z,24.33
2022-07-29T16:29:50.528Z,25.10
2022-07-29T16:32:52.709Z,24.42
2022-07-29T16:35:55.161Z,24.29
2022-07-29T16:38:57.289Z,24.75
2022-07-29T16:42:01.468Z,24.57
2022-07-29T16:45:05.809Z,24.83
2022-07-29T16:48:08.494Z,25.82
2022-07-29T16:51:14.497Z,24.79
2022-07-29T16:54:17.159Z,25.45
2022-07-29T16:57:19.392Z,25.44
2022-07-29T17:00:22.558Z,25.24
2022-07-29T17:03:24.725Z,25.64
2022-07-29T17:06:28.672Z,26.02
2022-07-29T17:09:32.539Z,26.17
2022-07-29T17:12:39.357Z,26.90
2022-07-29T17:15:42.987Z,26.69
2022-07-29T17:18:45.549Z,27.49
2022-07-29T17:21:49.067Z,27.11
2022-07-29T17:24:51.791Z,27.69
2022-07-29T17:28:00.558Z,27.99
2022-07-29T17:31:03.469Z,28.35
2022-07-29T17:34:06.730Z,28.46
2022-07-29T17:37:10.877Z,29.10
2022-07-29T17:40:12.990Z,28.74
2022-07-29T17:43:15.385Z,28.91
2022-07-29T17:46:18.921Z,29.40
2022-07-29T17:49:21.636Z,29.71
2022-07-29T17:52:23.762Z,30.57
2022-07-29T17:55:26.255Z,29.96
2022-07-29T17:58:28.399Z,30.19
2022-07-29T18:01:30.831Z,30.61
2022-07-29T18:04:33.719Z,31.12
2022-07-29T18:07:35.856Z,31.19
2022-07-29T18:10:38.428Z,31.24
2022-07-29T18:13:40.749Z,31.33
2022-07-29T18:16:43.225Z,31.55
2022-07-29T18:19:45.399Z,31.73
2022-07-29T18:22:47.780Z,31.91
2022-07-29T18:25:49.982Z,32.33
2022-07-29T18:28:52.382Z,32.15
2022-07-29T18:31:54.729Z,32.23
2022-07-29T18:34:57.195Z,32.43
2022-07-29T18:38:01.038Z,32.68
2022-07-29T18:41:05.085Z,32.79
2022-07-29T18:44:08.010Z,32.92
2022-07-29T18:47:11.394Z,33.28
2022-07-29T18:50:14.635Z,33.53
2022-07-29T18:53:17.980Z,33.78
2022-07-29T18:56:20.757Z,34.38
2022-07-29T18:59:23.391Z,34.05
2022-07-29T19:02:26.003Z,34.76
2022-07-29T19:05:28.392Z,34.99
2022-07-29T19:08:30.425Z,33.81
2022-07-29T19:11:32.821Z,33.19
2022-07-29T19:14:34.998Z,33.26
2022-07-29T19:17:38.630Z,33.65
2022-07-29T19:20:41.943Z,34.00
2022-07-29T19:24:02.511Z,34.17
2022-07-29T19:27:06.853Z,34.60
2022-07-29T19:30:09.781Z,35.19
2022-07-29T19:33:14.519Z,35.50
2022-07-29T19:36:17.543Z,35.84
2022-07-29T19:39:19.921Z,36.54
2022-07-29T19:42:37.663Z,36.78
2022-07-29T19:45:40.083Z,37.36
2022-07-29T19:48:42.488Z,37.71
2022-07-29T19:51:44.617Z,38.31
2022-07-29T19:54:47.026Z,38.11
2022-07-29T19:57:49.766Z,38.63
2022-07-29T20:00:52.132Z,38.91
2022-07-29T20:03:54.454Z,38.92
2022-07-29T20:07:01.377Z,39.27
2022-07-29T20:10:06.171Z,39.76
2022-07-29T20:13:08.370Z,40.28
2022-07-29T20:16:10.999Z,40.32
2022-07-29T20:19:13.597Z,40.50
2022-07-29T20:22:21.270Z,40.85
2022-07-29T20:25:23.652Z,41.23
2022-07-29T20:28:26.112Z,41.86
2022-07-29T20:31:30.448Z,41.90
2022-07-29T20:34:33.293Z,42.09
2022-07-29T20:37:56.040Z,42.31
2022-07-29T20:40:58.771Z,42.52
2022-07-29T20:44:01.677Z,43.33
2022-07-29T20:47:04.122Z,43.46
2022-07-29T20:50:06.776Z,43.81
2022-07-29T20:53:09.428Z,44.21
2022-07-29T20:56:12.451Z,44.43
2022-07-29T20:59:14.945Z,44.73
2022-07-29T21:02:17.263Z,44.97
2022-07-29T21:05:19.854Z,45.48
2022-07-29T21:08:22.285Z,45.52
2022-07-29T21:11:43.611Z,45.48
2022-07-29T21:14:47.915Z,45.88
2022-07-29T21:17:52.507Z,46.60
2022-07-29T21:20:55.378Z,46.85
2022-07-29T21:23:57.655Z,47.29
2022-07-29T21:27:21.258Z,47.53
2022-07-29T21:30:24.180Z,47.78
2022-07-29T21:33:28.059Z,47.97
2022-07-29T21:39:52.635Z,48.49
2022-07-29T21:42:55.048Z,49.23
2022-07-29T21:45:58.673Z,49.45
2022-07-29T21:49:01.180Z,49.71
2022-07-29T21:52:04.154Z,50.17
2022-07-29T21:55:07.475Z,50.93
2022-07-29T21:58:15.262Z,51.31
2022-07-29T22:01:17.685Z,51.60
2022-07-29T22:04:20.427Z,51.81
2022-07-29T22:07:22.581Z,52.01
2022-07-29T22:10:26.947Z,52.18
2022-07-29T22:13:29.059Z,52.16
2022-07-29T22:16:31.778Z,52.38
2022-07-29T22:19:33.936Z,53.19
2022-07-29T22:22:36.348Z,53.30
2022-07-29T22:25:38.473Z,53.62
2022-07-29T22:28:40.940Z,53.94
2022-07-29T22:31:43.908Z,54.67
2022-07-29T22:34:46.402Z,54.82
2022-07-29T22:37:48.432Z,55.11
2022-07-29T22:40:51.251Z,55.69
2022-07-29T22:43:53.383Z,55.81
2022-07-29T22:46:57.283Z,56.33
2022-07-29T22:49:59.466Z,56.45
2022-07-29T22:53:01.843Z,56.89
2022-07-29T22:56:04.352Z,57.24
2022-07-29T22:59:06.759Z,57.40
2022-07-29T23:02:08.898Z,57.42
2022-07-29T23:05:11.398Z,58.02
2022-07-29T23:08:13.533Z,58.05
2022-07-29T23:11:15.882Z,58.14
2022-07-29T23:14:18.069Z,58.42
2022-07-29T23:17:20.488Z,58.92
2022-07-29T23:20:22.783Z,58.89
2022-07-29T23:23:25.234Z,59.26
2022-07-29T23:26:34.369Z,59.55
2022-07-29T23:29:37.001Z,59.83
2022-07-29T23:32:39.171Z,59.97
2022-07-29T23:35:41.583Z,60.27
2022-07-29T23:38:44.203Z,60.27
2022-07-29T23:41:46.811Z,60.90
2022-07-29T23:44:48.925Z,61.23
2022-07-29T23:47:51.355Z,61.35
2022-07-29T23:50:53.502Z,61.68
2022-07-29T23:53:56.088Z,62.24
2022-07-29T23:56:58.473Z,61.65
